Time;durP1;ratioP1;P1;durP2;ratioP2;P2;SDS_P1;SDS_P2;PMS_P1;PMS_P2;Temp;Humidity;BMP_temperature;BMP_pressure;BME280_temperature;BME280_humidity;BME280_pressure;Samples;Min_cycle;Max_cycle;Signal;HPM_P1;HPM_P2
2021/10/23 00:01:45;;;;;;;;;;;;;;;;;;5069428;28;19929;-79
2021/10/23 00:04:12;;;;;;;;;;;;;;;;;;5068051;28;20293;-80
2021/10/23 00:06:39;;;;;;;;;;;;;;;;;;5067919;28;20361;-79
2021/10/23 00:09:07;;;;;;;;;;;;;;;;;;5076227;28;19924;-78
2021/10/23 00:11:34;;;;;;;;;;;;;;;;;;5075493;28;19929;-80
2021/10/23 00:14:01;;;;;;;;;;;;;;;;;;5067799;28;19943;-80
2021/10/23 00:16:28;;;;;;;;;;;;;;;;;;5072678;28;19928;-79
2021/10/23 00:18:57;;;;;;;;;;;;;;;;;;5078870;28;19932;-80
2021/10/23 00:21:24;;;;;;;;;;;;;;;;;;5067026;28;19928;-80
2021/10/23 00:23:51;;;;;;;;;;;;;;;;;;5068188;28;19939;-80
2021/10/23 00:26:18;;;;;;;;;;;;;;;;;;5069897;28;19924;-79
2021/10/23 00:28:45;;;;;;;;;;;;;;;;;;5069737;28;20362;-79
2021/10/23 00:31:12;;;;;;;;;;;;;;;;;;5060865;28;19933;-79
2021/10/23 00:33:39;;;;;;;;;;;;;;;;;;5048473;28;20261;-81
2021/10/23 00:36:08;;;;;;;;;;;;;;;;;;5046911;28;19935;-82
2021/10/23 00:38:35;;;;;;;;;;;;;;;;;;5046200;28;19939;-81
2021/10/23 00:41:02;;;;;;;;;;;;;;;;;;5046273;28;19928;-81
2021/10/23 00:43:29;;;;;;;;;;;;;;;;;;5049947;28;19952;-82
2021/10/23 00:45:56;;;;;;;;;;;;;;;;;;5049833;28;20015;-80
2021/10/23 00:48:24;;;;;;;;;;;;;;;;;;5052907;28;19933;-80
2021/10/23 00:50:51;;;;;;;;;;;;;;;;;;5053632;28;20019;-79
2021/10/23 00:53:21;;;;;;;;;;;;;;;;;;5050523;28;19935;-79
2021/10/23 00:55:48;;;;;;;;;;;;;;;;;;5052675;28;19977;-78
2021/10/23 00:58:15;;;;;;;;;;;;;;;;;;5064879;28;20372;-79
2021/10/23 01:00:42;;;;;;;;;;;;;;;;;;5064441;28;19936;-79
2021/10/23 01:03:09;;;;;;;;;;;;;;;;;;5065086;28;19925;-78
2021/10/23 01:05:36;;;;;;;;;;;;;;;;;;5062787;28;19950;-80
2021/10/23 01:08:04;;;;;;;;;;;;;;;;;;5054976;28;19928;-81
2021/10/23 01:10:32;;;;;;;;;;;;;;;;;;5050194;28;19929;-79
2021/10/23 01:12:59;;;;;;;;;;;;;;;;;;5068600;28;19931;-79
2021/10/23 01:15:27;;;;;;;;;;;;;;;;;;5073866;28;19967;-81
2021/10/23 01:17:55;;;;;;;;;;;;;;;;;;5051303;28;19971;-79
2021/10/23 01:20:24;;;;;;;;;;;;;;;;;;5062548;28;20370;-81
2021/10/23 01:22:52;;;;;;;;;;;;;;;;;;5050576;28;19936;-79
2021/10/23 01:25:20;;;;;;;;;;;;;;;;;;5050236;28;19925;-79
2021/10/23 01:27:47;;;;;;;;;;;;;;;;;;5049982;28;19925;-80
2021/10/23 01:30:15;;;;;;;;;;;;;;;;;;5049725;28;19929;-80
2021/10/23 01:32:42;;;;;;;;;;;;;;;;;;5069854;28;19931;-80
2021/10/23 01:35:09;;;;;;;;;;;;;;;;;;5069519;28;20515;-81
2021/10/23 01:37:40;;;;;;;;;;;;;;;;;;5070314;28;19929;-81
2021/10/23 01:40:09;;;;;;;;;;;;;;;;;;5073561;28;19989;-78
2021/10/23 01:42:36;;;;;;;;;;;;;;;;;;5072850;28;19936;-78
2021/10/23 01:45:04;;;;;;;;;;;;;;;;;;5073691;28;19939;-79
2021/10/23 01:47:31;;;;;;;;;;;;;;;;;;5072432;28;19931;-78
2021/10/23 01:49:58;;;;;;;;;;;;;;;;;;5072611;28;19935;-80
2021/10/23 01:52:25;;;;;;;;;;;;;;;;;;5073155;28;19928;-82
2021/10/23 01:54:53;;;;;;;;;;;;;;;;;;5074322;28;19925;-79
2021/10/23 01:57:21;;;;;;;;;;;;;;;;;;5074530;28;19935;-82
2021/10/23 01:59:48;;;;;;;;;;;;;;;;;;5073644;28;19960;-81
2021/10/23 02:02:15;;;;;;;;;;;;;;;;;;5073041;28;20376;-79
2021/10/23 02:04:43;;;;;;;;;;;;;;;;;;5073808;28;20353;-80
2021/10/23 02:07:10;;;;;;;;;;;;;;;;;;5072457;28;19928;-80
2021/10/23 02:09:37;;;;;;;;;;;;;;;;;;5072470;28;19939;-80
2021/10/23 02:12:06;;;;;;;;;;;;;;;;;;5072404;28;19928;-80
2021/10/23 02:14:33;;;;;;;;;;;;;;;;;;5073402;28;19928;-80
2021/10/23 02:17:00;;;;;;;;;;;;;;;;;;5079310;28;19931;-79
2021/10/23 02:19:27;;;;;;;;;;;;;;;;;;5079211;28;19971;-79
2021/10/23 02:21:55;;;;;;;;;;;;;;;;;;5078826;28;19928;-79
2021/10/23 02:24:22;;;;;;;;;;;;;;;;;;5072467;28;19924;-79
2021/10/23 02:26:49;;;;;;;;;;;;;;;;;;5072602;28;19929;-80
2021/10/23 02:29:17;;;;;;;;;;;;;;;;;;5072237;28;20349;-82
2021/10/23 02:31:44;;;;;;;;;;;;;;;;;;5059370;28;19929;-80
2021/10/23 02:34:11;;;;;;;;;;;;;;;;;;5052697;28;19947;-80
2021/10/23 02:36:38;;;;;;;;;;;;;;;;;;5051751;28;19925;-78
2021/10/23 02:39:06;;;;;;;;;;;;;;;;;;5052025;28;19943;-80
2021/10/23 02:41:33;;;;;;;;;;;;;;;;;;5051829;28;19925;-80
2021/10/23 02:44:00;;;;;;;;;;;;;;;;;;5051677;28;19929;-79
2021/10/23 02:46:28;;;;;;;;;;;;;;;;;;5051792;28;20357;-80
2021/10/23 02:48:55;;;;;;;;;;;;;;;;;;5052124;28;20282;-80
2021/10/23 02:51:22;;;;;;;;;;;;;;;;;;5053366;28;19932;-78
2021/10/23 02:53:50;;;;;;;;;;;;;;;;;;5052708;28;19929;-78
2021/10/23 02:56:17;;;;;;;;;;;;;;;;;;5052563;28;20392;-79
2021/10/23 02:58:44;;;;;;;;;;;;;;;;;;5053298;28;19929;-78
2021/10/23 03:01:11;;;;;;;;;;;;;;;;;;5052556;28;19924;-80
2021/10/23 03:03:39;;;;;;;;;;;;;;;;;;5066225;28;20015;-80
2021/10/23 03:06:07;;;;;;;;;;;;;;;;;;5070956;28;19928;-80
2021/10/23 03:08:34;;;;;;;;;;;;;;;;;;5071113;28;19936;-79
2021/10/23 03:11:01;;;;;;;;;;;;;;;;;;5071561;28;19939;-80
2021/10/23 03:13:28;;;;;;;;;;;;;;;;;;5071039;28;19929;-79
2021/10/23 03:15:56;;;;;;;;;;;;;;;;;;5071601;28;19964;-80
2021/10/23 03:18:23;;;;;;;;;;;;;;;;;;5071239;28;19935;-80
2021/10/23 03:20:53;;;;;;;;;;;;;;;;;;5072386;28;20566;-80
2021/10/23 03:23:21;;;;;;;;;;;;;;;;;;5072389;28;19932;-79
2021/10/23 03:25:48;;;;;;;;;;;;;;;;;;5071390;28;19924;-80
2021/10/23 03:28:15;;;;;;;;;;;;;;;;;;5070964;28;20238;-79
2021/10/23 03:30:42;;;;;;;;;;;;;;;;;;5071586;28;19924;-80
2021/10/23 03:33:10;;;;;;;;;;;;;;;;;;5070909;28;19928;-79
2021/10/23 03:35:37;;;;;;;;;;;;;;;;;;5071277;28;20370;-79
2021/10/23 03:38:06;;;;;;;;;;;;;;;;;;5070813;28;19928;-80
2021/10/23 03:40:33;;;;;;;;;;;;;;;;;;5071436;28;20349;-79
2021/10/23 03:43:00;;;;;;;;;;;;;;;;;;5070702;28;19935;-79
2021/10/23 03:45:28;;;;;;;;;;;;;;;;;;5070923;28;20354;-80
2021/10/23 03:47:55;;;;;;;;;;;;;;;;;;5070790;28;19954;-80
2021/10/23 03:50:22;;;;;;;;;;;;;;;;;;5070980;28;19931;-79
2021/10/23 03:52:49;;;;;;;;;;;;;;;;;;5076958;28;19928;-80
2021/10/23 03:55:17;;;;;;;;;;;;;;;;;;5075417;28;19936;-79
2021/10/23 03:57:45;;;;;;;;;;;;;;;;;;5071787;28;19928;-78
2021/10/23 04:00:13;;;;;;;;;;;;;;;;;;5070158;28;20003;-78
2021/10/23 04:02:40;;;;;;;;;;;;;;;;;;5070544;28;20011;-79
2021/10/23 04:05:07;;;;;;;;;;;;;;;;;;5071360;28;19951;-79
2021/10/23 04:07:34;;;;;;;;;;;;;;;;;;5070718;28;19939;-79
2021/10/23 04:10:03;;;;;;;;;;;;;;;;;;5072208;28;19935;-78
2021/10/23 04:12:31;;;;;;;;;;;;;;;;;;5076344;28;19955;-78
2021/10/23 04:15:00;;;;;;;;;;;;;;;;;;5071006;28;19939;-81
2021/10/23 04:17:27;;;;;;;;;;;;;;;;;;5070425;28;20372;-81
2021/10/23 04:19:54;;;;;;;;;;;;;;;;;;5070291;28;19939;-78
2021/10/23 04:22:21;;;;;;;;;;;;;;;;;;5071198;28;19925;-79
2021/10/23 04:24:51;;;;;;;;;;;;;;;;;;5070876;28;19932;-81
2021/10/23 04:27:18;;;;;;;;;;;;;;;;;;5070055;28;19935;-81
2021/10/23 04:29:47;;;;;;;;;;;;;;;;;;5069825;28;20013;-79
2021/10/23 04:32:14;;;;;;;;;;;;;;;;;;5070475;28;20261;-79
2021/10/23 04:34:41;;;;;;;;;;;;;;;;;;5070378;28;20365;-78
2021/10/23 04:37:08;;;;;;;;;;;;;;;;;;5070142;28;19931;-79
2021/10/23 04:39:36;;;;;;;;;;;;;;;;;;5070492;28;19935;-79
2021/10/23 04:42:03;;;;;;;;;;;;;;;;;;5069979;28;20416;-79
2021/10/23 04:44:31;;;;;;;;;;;;;;;;;;5070230;28;20436;-78
2021/10/23 04:46:59;;;;;;;;;;;;;;;;;;5072266;28;19943;-79
2021/10/23 04:49:26;;;;;;;;;;;;;;;;;;5073733;28;19925;-78
2021/10/23 04:51:53;;;;;;;;;;;;;;;;;;5075353;28;19928;-79
2021/10/23 04:54:20;;;;;;;;;;;;;;;;;;5074225;28;19925;-79
2021/10/23 04:56:47;;;;;;;;;;;;;;;;;;5071168;28;19948;-79
2021/10/23 04:59:14;;;;;;;;;;;;;;;;;;5071845;28;19928;-81
2021/10/23 05:01:41;;;;;;;;;;;;;;;;;;5069684;28;20266;-81
2021/10/23 05:04:10;;;;;;;;;;;;;;;;;;5070001;28;20303;-81
2021/10/23 05:06:37;;;;;;;;;;;;;;;;;;5070690;28;19939;-80
2021/10/23 05:09:04;;;;;;;;;;;;;;;;;;5071843;28;19928;-81
2021/10/23 05:11:31;;;;;;;;;;;;;;;;;;5069472;28;19924;-81
2021/10/23 05:13:58;;;;;;;;;;;;;;;;;;5073096;28;19928;-82
2021/10/23 05:16:25;;;;;;;;;;;;;;;;;;5073388;28;20277;-81
2021/10/23 05:18:52;;;;;;;;;;;;;;;;;;5073230;28;19924;-82
2021/10/23 05:21:21;;;;;;;;;;;;;;;;;;5076805;28;19928;-79
2021/10/23 05:23:50;;;;;;;;;;;;;;;;;;5077326;28;19929;-80
2021/10/23 05:26:17;;;;;;;;;;;;;;;;;;5072919;28;20346;-80
2021/10/23 05:28:44;;;;;;;;;;;;;;;;;;5073110;28;19928;-81
2021/10/23 05:31:11;;;;;;;;;;;;;;;;;;5073655;28;19925;-81
2021/10/23 05:33:38;;;;;;;;;;;;;;;;;;5074251;28;19929;-79
2021/10/23 05:36:05;;;;;;;;;;;;;;;;;;5076369;28;19936;-83
2021/10/23 05:38:34;;;;;;;;;;;;;;;;;;5072397;28;20345;-79
2021/10/23 05:41:01;;;;;;;;;;;;;;;;;;5073302;28;19925;-79
2021/10/23 05:43:28;;;;;;;;;;;;;;;;;;5072960;28;19933;-79
2021/10/23 05:45:55;;;;;;;;;;;;;;;;;;5073317;28;19940;-79
2021/10/23 05:48:22;;;;;;;;;;;;;;;;;;5072426;28;19925;-79
2021/10/23 05:50:49;;;;;;;;;;;;;;;;;;5073800;28;19932;-80
2021/10/23 05:53:16;;;;;;;;;;;;;;;;;;5072942;28;19936;-79
2021/10/23 05:55:45;;;;;;;;;;;;;;;;;;5072044;28;19928;-79
2021/10/23 05:58:12;;;;;;;;;;;;;;;;;;5073506;28;19950;-79
2021/10/23 06:00:48;;;;;;;;;;;;;;;;;;5072860;28;19924;-81
2021/10/23 06:03:18;;;;;;;;;;;;;;;;;;5073001;28;19986;-82
2021/10/23 06:05:46;;;;;;;;;;;;;;;;;;5077753;28;19924;-79
2021/10/23 06:08:13;;;;;;;;;;;;;;;;;;5080490;28;19991;-79
2021/10/23 06:10:40;;;;;;;;;;;;;;;;;;5079360;28;20373;-79
2021/10/23 06:13:09;;;;;;;;;;;;;;;;;;5074828;28;20372;-80
2021/10/23 06:15:36;;;;;;;;;;;;;;;;;;5073410;28;19924;-79
2021/10/23 06:18:03;;;;;;;;;;;;;;;;;;5076042;28;19935;-79
2021/10/23 06:20:31;;;;;;;;;;;;;;;;;;5074742;28;19929;-79
2021/10/23 06:22:58;;;;;;;;;;;;;;;;;;5082193;28;19939;-79
2021/10/23 06:25:25;;;;;;;;;;;;;;;;;;5078007;28;19931;-81
2021/10/23 06:27:52;;;;;;;;;;;;;;;;;;5071761;28;20266;-81
2021/10/23 06:30:21;;;;;;;;;;;;;;;;;;5080946;28;19958;-79
2021/10/23 06:32:48;;;;;;;;;;;;;;;;;;5082098;28;19955;-79
2021/10/23 06:35:15;;;;;;;;;;;;;;;;;;5073020;28;19931;-79
2021/10/23 06:37:42;;;;;;;;;;;;;;;;;;5071408;28;19928;-80
2021/10/23 06:40:11;;;;;;;;;;;;;;;;;;5072304;28;19929;-81
2021/10/23 06:42:38;;;;;;;;;;;;;;;;;;5071344;28;19946;-79
2021/10/23 06:45:06;;;;;;;;;;;;;;;;;;5076379;28;19929;-79
2021/10/23 06:47:34;;;;;;;;;;;;;;;;;;5080180;28;19924;-81
2021/10/23 06:50:01;;;;;;;;;;;;;;;;;;5072515;28;19939;-81
2021/10/23 06:52:28;;;;;;;;;;;;;;;;;;5071672;28;19932;-78
2021/10/23 06:54:55;;;;;;;;;;;;;;;;;;5071737;28;19934;-79
2021/10/23 06:57:23;;;;;;;;;;;;;;;;;;5079631;28;19939;-79
2021/10/23 06:59:58;;;;;;;;;;;;;;;;;;5076758;28;19939;-79
2021/10/23 07:02:25;;;;;;;;;;;;;;;;;;5071943;28;19924;-81
2021/10/23 07:04:54;;;;;;;;;;;;;;;;;;5074444;28;19924;-79
2021/10/23 07:07:21;;;;;;;;;;;;;;;;;;5081056;28;20277;-79
2021/10/23 07:09:48;;;;;;;;;;;;;;;;;;5075268;28;20345;-80
2021/10/23 07:12:15;;;;;;;;;;;;;;;;;;5071169;28;20038;-80
2021/10/23 07:14:42;;;;;;;;;;;;;;;;;;5071795;28;19925;-80
2021/10/23 07:17:09;;;;;;;;;;;;;;;;;;5071239;28;19928;-79
2021/10/23 07:19:36;;;;;;;;;;;;;;;;;;5074898;28;19935;-79
2021/10/23 07:22:05;;;;;;;;;;;;;;;;;;5071545;28;19925;-79
2021/10/23 07:24:32;;;;;;;;;;;;;;;;;;5071356;28;19944;-80
2021/10/23 07:26:59;;;;;;;;;;;;;;;;;;5071036;28;19935;-80
2021/10/23 07:29:26;;;;;;;;;;;;;;;;;;5077563;28;20384;-79
2021/10/23 07:31:53;;;;;;;;;;;;;;;;;;5071831;28;19958;-79
2021/10/23 07:34:20;;;;;;;;;;;;;;;;;;5070335;28;19928;-80
2021/10/23 07:36:48;;;;;;;;;;;;;;;;;;5070354;28;19928;-80
2021/10/23 07:39:17;;;;;;;;;;;;;;;;;;5077055;28;20427;-80
2021/10/23 07:41:44;;;;;;;;;;;;;;;;;;5072455;28;19947;-80
2021/10/23 07:44:11;;;;;;;;;;;;;;;;;;5070911;28;19925;-80
2021/10/23 07:46:38;;;;;;;;;;;;;;;;;;5070126;28;20427;-81
2021/10/23 07:49:06;;;;;;;;;;;;;;;;;;5073300;28;19943;-80
2021/10/23 07:51:34;;;;;;;;;;;;;;;;;;5077405;28;20358;-79
2021/10/23 07:54:01;;;;;;;;;;;;;;;;;;5070743;28;19928;-79
2021/10/23 07:56:29;;;;;;;;;;;;;;;;;;5070736;28;20140;-80
2021/10/23 07:58:57;;;;;;;;;;;;;;;;;;5070261;28;19935;-79
2021/10/23 08:01:24;;;;;;;;;;;;;;;;;;5071155;28;19935;-79
2021/10/23 08:03:51;;;;;;;;;;;;;;;;;;5070274;28;20380;-79
2021/10/23 08:06:18;;;;;;;;;;;;;;;;;;5070493;28;19924;-80
2021/10/23 08:08:45;;;;;;;;;;;;;;;;;;5072152;28;19941;-80
2021/10/23 08:11:12;;;;;;;;;;;;;;;;;;5069906;28;19924;-81
2021/10/23 08:13:41;;;;;;;;;;;;;;;;;;5069649;28;20286;-80
2021/10/23 08:16:08;;;;;;;;;;;;;;;;;;5070512;28;19924;-81
2021/10/23 08:18:35;;;;;;;;;;;;;;;;;;5069847;28;19939;-79
2021/10/23 08:21:02;;;;;;;;;;;;;;;;;;5069756;28;19935;-80
2021/10/23 08:23:29;;;;;;;;;;;;;;;;;;5070038;28;19929;-80
2021/10/23 08:25:56;;;;;;;;;;;;;;;;;;5069703;28;19931;-79
2021/10/23 08:28:24;;;;;;;;;;;;;;;;;;5069843;28;19924;-79
2021/10/23 08:30:52;;;;;;;;;;;;;;;;;;5065178;28;19925;-80
2021/10/23 08:33:19;;;;;;;;;;;;;;;;;;5050175;28;19940;-81
2021/10/23 08:35:46;;;;;;;;;;;;;;;;;;5050050;28;19936;-80
2021/10/23 08:38:14;;;;;;;;;;;;;;;;;;5050320;28;19925;-79
2021/10/23 08:40:41;;;;;;;;;;;;;;;;;;5050220;28;19925;-79
2021/10/23 08:43:08;;;;;;;;;;;;;;;;;;5049701;28;19925;-79
2021/10/23 08:45:37;;;;;;;;;;;;;;;;;;5049453;28;19929;-79
2021/10/23 08:48:06;;;;;;;;;;;;;;;;;;5053654;28;20289;-79
2021/10/23 08:50:33;;;;;;;;;;;;;;;;;;5053923;28;19935;-79
2021/10/23 08:53:02;;;;;;;;;;;;;;;;;;5053150;28;20369;-79
2021/10/23 08:55:29;;;;;;;;;;;;;;;;;;5053881;28;19929;-80
2021/10/23 08:57:56;;;;;;;;;;;;;;;;;;5053238;28;19956;-82
2021/10/23 09:00:23;;;;;;;;;;;;;;;;;;5053815;28;19924;-83
2021/10/23 09:02:51;;;;;;;;;;;;;;;;;;5053621;28;19929;-81
2021/10/23 09:05:19;;;;;;;;;;;;;;;;;;5052908;28;19935;-82
2021/10/23 09:07:47;;;;;;;;;;;;;;;;;;5053864;28;19929;-80
2021/10/23 09:10:23;;;;;;;;;;;;;;;;;;5054204;28;20395;-79
2021/10/23 09:12:58;;;;;;;;;;;;;;;;;;5063059;28;19989;-79
2021/10/23 09:15:25;;;;;;;;;;;;;;;;;;5073141;28;19931;-79
2021/10/23 09:17:53;;;;;;;;;;;;;;;;;;5072664;28;19935;-80
2021/10/23 09:20:22;;;;;;;;;;;;;;;;;;5072644;28;19986;-83
2021/10/23 09:22:50;;;;;;;;;;;;;;;;;;5072562;28;20369;-80
2021/10/23 09:25:19;;;;;;;;;;;;;;;;;;5073840;28;19940;-82
2021/10/23 09:27:47;;;;;;;;;;;;;;;;;;5073056;28;20375;-82
2021/10/23 09:30:15;;;;;;;;;;;;;;;;;;5074258;28;19955;-82
2021/10/23 09:32:42;;;;;;;;;;;;;;;;;;5073884;28;19935;-81
2021/10/23 09:35:10;;;;;;;;;;;;;;;;;;5073994;28;19933;-82
2021/10/23 09:37:39;;;;;;;;;;;;;;;;;;5073034;28;20364;-80
2021/10/23 09:40:06;;;;;;;;;;;;;;;;;;5073531;28;19924;-81
2021/10/23 09:42:33;;;;;;;;;;;;;;;;;;5073417;28;20031;-81
2021/10/23 09:45:02;;;;;;;;;;;;;;;;;;5074136;28;19928;-83
2021/10/23 09:47:36;;;;;;;;;;;;;;;;;;5072823;28;19932;-80
2021/10/23 09:50:09;;;;;;;;;;;;;;;;;;5072208;28;19924;-80
2021/10/23 09:52:52;;;;;;;;;;;;;;;;;;5072821;28;19925;-82
2021/10/23 09:55:21;;;;;;;;;;;;;;;;;;5072894;28;19933;-80
2021/10/23 09:57:48;;;;;;;;;;;;;;;;;;5071751;28;19925;-80
2021/10/23 10:00:15;;;;;;;;;;;;;;;;;;5072471;28;19935;-81
2021/10/23 10:02:43;;;;;;;;;;;;;;;;;;5073329;28;19924;-83
2021/10/23 10:05:10;;;;;;;;;;;;;;;;;;5072434;28;20467;-84
2021/10/23 10:07:37;;;;;;;;;;;;;;;;;;5072293;28;19939;-84
2021/10/23 10:10:05;;;;;;;;;;;;;;;;;;5073057;28;19943;-83
2021/10/23 10:12:34;;;;;;;;;;;;;;;;;;5072039;28;19956;-83
2021/10/23 10:15:06;;;;;;;;;;;;;;;;;;5072912;28;20031;-84
2021/10/23 10:17:34;;;;;;;;;;;;;;;;;;5072926;28;20269;-80
2021/10/23 10:20:02;;;;;;;;;;;;;;;;;;5073719;28;19924;-82
2021/10/23 10:22:29;;;;;;;;;;;;;;;;;;5074335;28;19935;-81
2021/10/23 10:25:11;;;;;;;;;;;;;;;;;;5074137;28;19924;-81
2021/10/23 10:27:45;;;;;;;;;;;;;;;;;;5071310;28;19924;-81
2021/10/23 10:30:20;;;;;;;;;;;;;;;;;;5072907;28;19936;-81
2021/10/23 10:32:47;;;;;;;;;;;;;;;;;;5072754;28;19924;-81
2021/10/23 10:35:34;;;;;;;;;;;;;;;;;;5073676;28;19939;-81
2021/10/23 10:43:59;;;;;;;;;;;;;;;;;;5070917;28;19951;-82
2021/10/23 10:46:50;;;;;;;;;;;;;;;;;;5070998;28;19932;-81
2021/10/23 10:49:32;;;;;;;;;;;;;;;;;;5071231;28;20269;-82
2021/10/23 10:51:59;;;;;;;;;;;;;;;;;;5070961;28;19924;-81
2021/10/23 10:54:26;;;;;;;;;;;;;;;;;;5071450;28;19929;-82
2021/10/23 10:56:53;;;;;;;;;;;;;;;;;;5071547;28;19925;-83
2021/10/23 10:59:39;;;;;;;;;;;;;;;;;;5079639;28;19928;-80
2021/10/23 11:02:08;;;;;;;;;;;;;;;;;;5079831;28;19939;-80
2021/10/23 11:04:55;;;;;;;;;;;;;;;;;;5075725;28;19939;-82
2021/10/23 11:07:22;;;;;;;;;;;;;;;;;;5070959;28;19924;-82
2021/10/23 11:09:49;;;;;;;;;;;;;;;;;;5071231;28;19924;-80
2021/10/23 11:12:17;;;;;;;;;;;;;;;;;;5071423;28;19924;-80
2021/10/23 11:14:44;;;;;;;;;;;;;;;;;;5071039;28;19936;-81
2021/10/23 11:17:16;;;;;;;;;;;;;;;;;;5071622;28;19925;-80
2021/10/23 11:19:44;;;;;;;;;;;;;;;;;;5072045;28;20360;-79
2021/10/23 11:22:12;;;;;;;;;;;;;;;;;;5071336;28;19978;-81
2021/10/23 11:24:40;;;;;;;;;;;;;;;;;;5071067;28;20401;-81
2021/10/23 11:27:07;;;;;;;;;;;;;;;;;;5072236;28;20258;-81
2021/10/23 11:29:37;;;;;;;;;;;;;;;;;;5071367;28;19925;-82
2021/10/23 11:32:04;;;;;;;;;;;;;;;;;;5072170;28;19963;-79
2021/10/23 11:34:33;;;;;;;;;;;;;;;;;;5072436;28;20456;-79
2021/10/23 11:37:00;;;;;;;;;;;;;;;;;;5072405;28;19935;-79
2021/10/23 11:39:27;;;;;;;;;;;;;;;;;;5072640;28;19928;-79
2021/10/23 11:42:09;;;;;;;;;;;;;;;;;;5072378;28;19928;-79
2021/10/23 11:44:36;;;;;;;;;;;;;;;;;;5072626;28;19936;-79
2021/10/23 11:47:03;;;;;;;;;;;;;;;;;;5073240;28;19939;-79
2021/10/23 11:49:32;;;;;;;;;;;;;;;;;;5073237;28;19933;-79
2021/10/23 11:51:59;;;;;;;;;;;;;;;;;;5075841;28;19924;-79
2021/10/23 11:54:27;;;;;;;;;;;;;;;;;;5076644;28;20254;-81
2021/10/23 11:56:54;;;;;;;;;;;;;;;;;;5070271;28;19925;-82
2021/10/23 11:59:24;;;;;;;;;;;;;;;;;;5070698;28;20269;-81
2021/10/23 12:01:51;;;;;;;;;;;;;;;;;;5070608;28;20007;-82
2021/10/23 12:04:28;;;;;;;;;;;;;;;;;;5068877;28;19929;-82
2021/10/23 12:06:57;;;;;;;;;;;;;;;;;;5069707;28;20006;-82
2021/10/23 12:09:24;;;;;;;;;;;;;;;;;;5070408;28;19932;-82
2021/10/23 12:12:03;;;;;;;;;;;;;;;;;;5069962;28;19924;-83
2021/10/23 12:14:30;;;;;;;;;;;;;;;;;;5077361;28;19928;-80
2021/10/23 12:16:59;;;;;;;;;;;;;;;;;;5082890;28;19928;-80
2021/10/23 12:19:33;;;;;;;;;;;;;;;;;;5078132;28;19931;-79
2021/10/23 12:22:08;;;;;;;;;;;;;;;;;;5085249;28;19933;-79
2021/10/23 12:24:37;;;;;;;;;;;;;;;;;;5079762;28;19924;-80
2021/10/23 12:27:12;;;;;;;;;;;;;;;;;;5070144;28;20333;-80
2021/10/23 12:29:41;;;;;;;;;;;;;;;;;;5070091;28;20300;-81
2021/10/23 12:32:10;;;;;;;;;;;;;;;;;;5070034;28;19928;-83
2021/10/23 12:34:56;;;;;;;;;;;;;;;;;;5070038;28;19928;-81
2021/10/23 12:37:38;;;;;;;;;;;;;;;;;;5069668;28;20364;-80
2021/10/23 12:40:08;;;;;;;;;;;;;;;;;;5070205;28;20043;-80
2021/10/23 12:42:36;;;;;;;;;;;;;;;;;;5075212;28;20324;-82
2021/10/23 12:45:06;;;;;;;;;;;;;;;;;;5069429;28;19925;-82
2021/10/23 12:47:33;;;;;;;;;;;;;;;;;;5070002;28;19940;-81
2021/10/23 12:50:00;;;;;;;;;;;;;;;;;;5070119;28;20572;-81
2021/10/23 12:52:27;;;;;;;;;;;;;;;;;;5070303;28;19928;-78
2021/10/23 12:54:57;;;;;;;;;;;;;;;;;;5070309;28;19932;-78
2021/10/23 12:57:24;;;;;;;;;;;;;;;;;;5070019;28;19924;-78
2021/10/23 12:59:52;;;;;;;;;;;;;;;;;;5069562;28;20421;-77
2021/10/23 13:02:19;;;;;;;;;;;;;;;;;;5066768;28;19933;-79
2021/10/23 13:04:46;;;;;;;;;;;;;;;;;;5069365;28;19929;-81
2021/10/23 13:07:13;;;;;;;;;;;;;;;;;;5069322;28;19924;-80
2021/10/23 13:09:40;;;;;;;;;;;;;;;;;;5069095;28;19928;-81
2021/10/23 13:12:08;;;;;;;;;;;;;;;;;;5069914;28;19924;-79
2021/10/23 13:14:35;;;;;;;;;;;;;;;;;;5069304;28;19935;-80
2021/10/23 13:17:03;;;;;;;;;;;;;;;;;;5069118;28;19924;-80
2021/10/23 13:19:30;;;;;;;;;;;;;;;;;;5070280;28;19924;-81
2021/10/23 13:21:57;;;;;;;;;;;;;;;;;;5069462;28;19924;-79
2021/10/23 13:24:24;;;;;;;;;;;;;;;;;;5069906;28;19936;-79
2021/10/23 13:26:51;;;;;;;;;;;;;;;;;;5069128;28;19932;-80
2021/10/23 13:29:19;;;;;;;;;;;;;;;;;;5069287;28;19925;-79
2021/10/23 13:31:47;;;;;;;;;;;;;;;;;;5069550;28;19939;-79
2021/10/23 13:34:14;;;;;;;;;;;;;;;;;;5072278;28;19924;-80
2021/10/23 13:36:41;;;;;;;;;;;;;;;;;;5072918;28;20019;-80
2021/10/23 13:39:09;;;;;;;;;;;;;;;;;;5073354;28;19929;-79
2021/10/23 13:41:36;;;;;;;;;;;;;;;;;;5072686;28;19999;-79
2021/10/23 13:44:04;;;;;;;;;;;;;;;;;;5073093;28;20451;-79
2021/10/23 13:46:33;;;;;;;;;;;;;;;;;;5072927;28;19948;-79
2021/10/23 13:49:00;;;;;;;;;;;;;;;;;;5072607;28;19924;-79
2021/10/23 13:51:27;;;;;;;;;;;;;;;;;;5073161;28;19929;-79
2021/10/23 13:53:54;;;;;;;;;;;;;;;;;;5072879;28;19939;-78
2021/10/23 13:56:21;;;;;;;;;;;;;;;;;;5072785;28;19928;-79
2021/10/23 13:58:48;;;;;;;;;;;;;;;;;;5072669;28;20238;-79
2021/10/23 14:01:15;;;;;;;;;;;;;;;;;;5073313;28;20541;-77
2021/10/23 14:03:45;;;;;;;;;;;;;;;;;;5072878;28;19932;-77
2021/10/23 14:06:12;;;;;;;;;;;;;;;;;;5071833;28;19932;-77
2021/10/23 14:08:39;;;;;;;;;;;;;;;;;;5072101;28;19924;-78
2021/10/23 14:11:07;;;;;;;;;;;;;;;;;;5071789;28;20625;-77
2021/10/23 14:13:34;;;;;;;;;;;;;;;;;;5071882;28;19924;-78
2021/10/23 14:16:01;;;;;;;;;;;;;;;;;;5073664;28;19932;-77
2021/10/23 14:18:28;;;;;;;;;;;;;;;;;;5072833;28;19935;-77
2021/10/23 14:20:57;;;;;;;;;;;;;;;;;;5072090;28;19932;-77
2021/10/23 14:23:25;;;;;;;;;;;;;;;;;;5072292;28;19932;-77
2021/10/23 14:25:54;;;;;;;;;;;;;;;;;;5073801;28;19928;-79
2021/10/23 14:28:40;;;;;;;;;;;;;;;;;;5082513;28;19933;-78
2021/10/23 14:31:07;;;;;;;;;;;;;;;;;;5087095;28;19988;-80
2021/10/23 14:33:34;;;;;;;;;;;;;;;;;;5071958;28;19924;-76
2021/10/23 14:36:03;;;;;;;;;;;;;;;;;;5069340;28;19929;-77
2021/10/23 14:38:30;;;;;;;;;;;;;;;;;;5061416;28;19935;-77
2021/10/23 14:40:57;;;;;;;;;;;;;;;;;;5072974;28;19924;-77
2021/10/23 14:43:24;;;;;;;;;;;;;;;;;;5072912;28;19928;-77
2021/10/23 14:45:51;;;;;;;;;;;;;;;;;;5072350;28;20400;-77
2021/10/23 14:48:19;;;;;;;;;;;;;;;;;;5072732;28;20337;-78
2021/10/23 14:50:46;;;;;;;;;;;;;;;;;;5072049;28;19938;-78
2021/10/23 14:53:15;;;;;;;;;;;;;;;;;;5072007;28;19924;-79
2021/10/23 14:55:42;;;;;;;;;;;;;;;;;;5071208;28;19935;-79
2021/10/23 14:58:09;;;;;;;;;;;;;;;;;;5071914;28;19951;-79
2021/10/23 15:00:36;;;;;;;;;;;;;;;;;;5071801;28;20361;-79
2021/10/23 15:03:04;;;;;;;;;;;;;;;;;;5071629;28;19924;-79
2021/10/23 15:05:31;;;;;;;;;;;;;;;;;;5071424;28;19944;-79
2021/10/23 15:07:59;;;;;;;;;;;;;;;;;;5071722;28;19928;-79
2021/10/23 15:10:28;;;;;;;;;;;;;;;;;;5071440;28;19928;-80
2021/10/23 15:12:55;;;;;;;;;;;;;;;;;;5072618;28;19924;-78
2021/10/23 15:15:22;;;;;;;;;;;;;;;;;;5074614;28;19935;-78
2021/10/23 15:17:49;;;;;;;;;;;;;;;;;;5070965;28;20342;-79
2021/10/23 15:20:17;;;;;;;;;;;;;;;;;;5071061;28;19944;-79
2021/10/23 15:22:44;;;;;;;;;;;;;;;;;;5071679;28;19935;-80
2021/10/23 15:25:12;;;;;;;;;;;;;;;;;;5071090;28;19932;-79
2021/10/23 15:27:40;;;;;;;;;;;;;;;;;;5070939;28;19928;-79
2021/10/23 15:30:09;;;;;;;;;;;;;;;;;;5071720;28;19932;-79
2021/10/23 15:32:37;;;;;;;;;;;;;;;;;;5050789;28;19929;-79
2021/10/23 15:35:04;;;;;;;;;;;;;;;;;;5050848;28;19929;-79
2021/10/23 15:37:32;;;;;;;;;;;;;;;;;;5051072;28;20370;-78
2021/10/23 15:39:59;;;;;;;;;;;;;;;;;;5050375;28;19925;-80
2021/10/23 15:42:26;;;;;;;;;;;;;;;;;;5050954;28;19929;-80
2021/10/23 15:44:55;;;;;;;;;;;;;;;;;;5050847;28;19924;-80
2021/10/23 15:47:22;;;;;;;;;;;;;;;;;;5050800;28;20361;-80
2021/10/23 15:49:50;;;;;;;;;;;;;;;;;;5050634;28;19976;-79
2021/10/23 15:52:22;;;;;;;;;;;;;;;;;;5051463;28;19925;-81
2021/10/23 15:54:50;;;;;;;;;;;;;;;;;;5050514;28;19936;-81
2021/10/23 15:57:17;;;;;;;;;;;;;;;;;;5049699;28;20369;-81
2021/10/23 15:59:44;;;;;;;;;;;;;;;;;;5051115;28;19928;-78
2021/10/23 16:02:13;;;;;;;;;;;;;;;;;;5051019;28;19936;-80
2021/10/23 16:04:40;;;;;;;;;;;;;;;;;;5062655;28;19955;-78
2021/10/23 16:07:07;;;;;;;;;;;;;;;;;;5057768;28;19925;-79
2021/10/23 16:09:34;;;;;;;;;;;;;;;;;;5051869;28;19928;-79
2021/10/23 16:12:01;;;;;;;;;;;;;;;;;;5053832;28;20411;-80
2021/10/23 16:14:28;;;;;;;;;;;;;;;;;;5071286;28;19952;-77
2021/10/23 16:16:58;;;;;;;;;;;;;;;;;;5070440;28;20404;-78
2021/10/23 16:19:26;;;;;;;;;;;;;;;;;;5069889;28;19924;-79
2021/10/23 16:21:53;;;;;;;;;;;;;;;;;;5070239;28;20277;-79
2021/10/23 16:24:20;;;;;;;;;;;;;;;;;;5071010;28;20642;-79
2021/10/23 16:26:47;;;;;;;;;;;;;;;;;;5069773;28;19935;-79
2021/10/23 16:29:15;;;;;;;;;;;;;;;;;;5070126;28;20379;-79
2021/10/23 16:31:42;;;;;;;;;;;;;;;;;;5070451;28;19924;-79
2021/10/23 16:34:09;;;;;;;;;;;;;;;;;;5070302;28;19928;-79
2021/10/23 16:36:37;;;;;;;;;;;;;;;;;;5070212;28;19928;-78
2021/10/23 16:39:05;;;;;;;;;;;;;;;;;;5069942;28;20280;-78
2021/10/23 16:41:33;;;;;;;;;;;;;;;;;;5070400;28;19935;-79
2021/10/23 16:44:00;;;;;;;;;;;;;;;;;;5070334;28;19935;-79
2021/10/23 16:46:27;;;;;;;;;;;;;;;;;;5070037;28;19924;-79
2021/10/23 16:48:54;;;;;;;;;;;;;;;;;;5069901;28;19939;-79
2021/10/23 16:51:22;;;;;;;;;;;;;;;;;;5070361;28;19928;-80
2021/10/23 16:53:51;;;;;;;;;;;;;;;;;;5069518;28;19989;-80
2021/10/23 16:56:19;;;;;;;;;;;;;;;;;;5069558;28;19928;-80
2021/10/23 16:58:46;;;;;;;;;;;;;;;;;;5070485;28;19929;-80